createdAt,value
2019-03-13T00:02:14.325Z,4.40
2019-03-13T00:04:45.653Z,5.10
2019-03-13T00:07:16.932Z,5.50
2019-03-13T00:09:48.166Z,5.10
2019-03-13T00:12:19.438Z,5.77
2019-03-13T00:14:50.742Z,6.57
2019-03-13T00:17:22.040Z,5.43
2019-03-13T00:19:53.295Z,6.20
2019-03-13T00:22:24.566Z,7.10
2019-03-13T00:24:56.352Z,6.30
2019-03-13T00:27:28.790Z,6.00
2019-03-13T00:30:00.063Z,6.43
2019-03-13T00:32:31.355Z,5.80
2019-03-13T00:35:02.596Z,5.70
2019-03-13T00:37:33.827Z,6.37
2019-03-13T00:40:05.267Z,6.10
2019-03-13T00:42:36.558Z,6.03
2019-03-13T00:45:08.040Z,5.73
2019-03-13T00:47:39.330Z,5.90
2019-03-13T00:50:15.927Z,6.13
2019-03-13T00:52:47.256Z,6.73
2019-03-13T00:55:18.476Z,8.20
2019-03-13T00:57:49.720Z,6.20
2019-03-13T01:00:55.228Z,5.87
2019-03-13T01:03:43.401Z,6.10
2019-03-13T01:06:21.450Z,6.30
2019-03-13T01:08:52.722Z,5.40
2019-03-13T01:11:27.139Z,5.57
2019-03-13T01:13:56.945Z,6.60
2019-03-13T01:16:28.225Z,7.33
2019-03-13T01:18:59.488Z,4.90
2019-03-13T01:21:30.764Z,6.60
2019-03-13T01:24:02.031Z,5.80
2019-03-13T01:26:33.292Z,5.60
2019-03-13T01:29:04.672Z,3.93
2019-03-13T01:31:46.256Z,4.87
2019-03-13T01:34:30.296Z,3.27
2019-03-13T01:37:01.587Z,4.87
2019-03-13T01:39:32.837Z,3.97
2019-03-13T01:42:04.137Z,4.70
2019-03-13T01:44:35.624Z,4.80
2019-03-13T01:47:07.008Z,6.10
2019-03-13T01:49:38.238Z,4.20
2019-03-13T01:52:09.544Z,4.93
2019-03-13T01:54:40.803Z,3.03
2019-03-13T01:57:12.086Z,4.97
2019-03-13T01:59:43.442Z,3.73
2019-03-13T02:02:14.729Z,3.57
2019-03-13T02:04:46.036Z,3.80
2019-03-13T02:07:17.280Z,3.77
2019-03-13T02:09:48.539Z,8.53
2019-03-13T02:12:19.793Z,4.50
2019-03-13T02:14:51.079Z,5.10
2019-03-13T02:17:22.337Z,5.37
2019-03-13T02:19:53.571Z,7.47
2019-03-13T02:22:25.157Z,3.57
2019-03-13T02:24:56.455Z,9.87
2019-03-13T02:27:27.736Z,5.73
2019-03-13T02:29:58.985Z,6.93
2019-03-13T02:32:30.257Z,5.77
2019-03-13T02:35:01.516Z,6.10
2019-03-13T02:37:32.801Z,4.80
2019-03-13T02:40:04.100Z,3.87
2019-03-13T02:42:35.394Z,7.27
2019-03-13T02:45:07.973Z,6.40
2019-03-13T02:47:39.221Z,9.40
2019-03-13T02:50:12.088Z,6.07
2019-03-13T02:52:43.542Z,4.90
2019-03-13T02:55:15.511Z,6.97
2019-03-13T02:57:46.755Z,6.00
2019-03-13T03:00:19.888Z,4.60
2019-03-13T03:02:57.204Z,6.47
2019-03-13T03:05:28.481Z,5.07
2019-03-13T03:07:59.775Z,4.50
2019-03-13T03:10:31.020Z,6.60
2019-03-13T03:13:02.354Z,9.10
2019-03-13T03:15:33.641Z,8.33
2019-03-13T03:18:04.892Z,9.33
2019-03-13T03:20:36.192Z,4.97
2019-03-13T03:23:07.438Z,7.13
2019-03-13T03:25:38.671Z,6.37
2019-03-13T03:28:09.917Z,6.57
2019-03-13T03:30:41.225Z,4.93
2019-03-13T03:33:12.385Z,7.80
2019-03-13T03:35:43.625Z,7.17
2019-03-13T03:38:14.830Z,7.90
2019-03-13T03:40:46.051Z,9.53
2019-03-13T03:43:17.760Z,10.90
2019-03-13T03:45:48.985Z,7.40
2019-03-13T03:48:20.209Z,8.17
2019-03-13T03:50:51.512Z,10.23
2019-03-13T03:53:22.813Z,6.80
2019-03-13T03:55:54.201Z,7.40
2019-03-13T03:58:29.019Z,10.23
2019-03-13T04:00:58.442Z,8.80
2019-03-13T04:03:29.761Z,7.57
2019-03-13T04:06:01.510Z,7.33
2019-03-13T04:08:32.777Z,5.00
2019-03-13T04:11:04.065Z,11.57
2019-03-13T04:13:35.306Z,7.73
2019-03-13T04:16:06.546Z,7.47
2019-03-13T04:18:37.803Z,10.50
2019-03-13T04:21:09.139Z,9.70
2019-03-13T04:23:40.427Z,7.93
2019-03-13T04:26:13.009Z,7.70
2019-03-13T04:28:44.658Z,9.43
2019-03-13T04:31:15.937Z,6.60
2019-03-13T04:33:47.222Z,7.60
2019-03-13T04:36:18.524Z,8.43
2019-03-13T04:38:49.802Z,7.60
2019-03-13T04:41:21.074Z,8.67
2019-03-13T04:43:52.375Z,9.47
2019-03-13T04:46:23.625Z,8.40
2019-03-13T04:48:54.875Z,8.13
2019-03-13T04:51:26.196Z,13.60
2019-03-13T04:53:57.486Z,9.57
2019-03-13T04:56:28.743Z,11.83
2019-03-13T04:59:00.081Z,11.60
2019-03-13T05:01:31.345Z,8.00
2019-03-13T05:04:02.731Z,12.33
2019-03-13T05:06:34.513Z,7.83
2019-03-13T05:09:11.329Z,7.73
2019-03-13T05:11:42.597Z,6.73
2019-03-13T05:14:13.850Z,8.77
2019-03-13T05:16:45.140Z,8.70
2019-03-13T05:19:16.436Z,7.97
2019-03-13T05:21:47.758Z,9.53
2019-03-13T05:24:19.078Z,12.77
2019-03-13T05:26:50.366Z,13.50
2019-03-13T05:29:21.660Z,11.47
2019-03-13T05:31:52.897Z,13.00
2019-03-13T05:34:24.164Z,14.50
2019-03-13T05:36:55.440Z,13.17
2019-03-13T05:39:26.711Z,12.03
2019-03-13T05:41:57.948Z,8.03
2019-03-13T05:44:29.302Z,10.30
2019-03-13T05:47:00.529Z,15.03
2019-03-13T05:49:31.830Z,11.47
2019-03-13T05:52:03.160Z,10.10
2019-03-13T05:54:34.432Z,12.33
2019-03-13T05:57:05.738Z,9.63
2019-03-13T05:59:37.047Z,8.47
2019-03-13T06:02:08.412Z,10.40
2019-03-13T06:04:39.649Z,13.50
2019-03-13T06:07:10.927Z,10.63
2019-03-13T06:09:42.167Z,10.53
2019-03-13T06:12:13.557Z,9.50
2019-03-13T06:14:44.841Z,11.20
2019-03-13T06:17:16.125Z,13.00
2019-03-13T06:19:47.436Z,10.37
2019-03-13T06:22:18.738Z,9.30
2019-03-13T06:24:50.036Z,11.33
2019-03-13T06:27:21.307Z,9.27
2019-03-13T06:29:52.641Z,10.97
2019-03-13T06:32:23.905Z,10.87
2019-03-13T06:34:55.205Z,12.37
2019-03-13T06:37:26.558Z,12.93
2019-03-13T06:39:57.811Z,8.50
2019-03-13T06:42:29.155Z,12.63
2019-03-13T06:45:00.442Z,12.07
2019-03-13T06:47:31.721Z,11.87
2019-03-13T06:50:02.988Z,15.23
2019-03-13T06:52:34.282Z,8.07
2019-03-13T06:55:06.036Z,13.40
2019-03-13T06:57:37.348Z,12.67
2019-03-13T07:00:42.134Z,7.90
2019-03-13T07:03:44.124Z,10.33
2019-03-13T07:06:31.286Z,12.73
2019-03-13T07:09:19.831Z,9.20
2019-03-13T07:12:16.142Z,11.67
2019-03-13T07:15:09.135Z,14.47
2019-03-13T07:17:57.716Z,7.77
2019-03-13T07:20:46.284Z,8.80
2019-03-13T07:23:26.703Z,16.37
2019-03-13T07:26:34.918Z,14.47
2019-03-13T07:29:23.196Z,8.43
2019-03-13T07:32:11.818Z,9.57
2019-03-13T07:35:04.960Z,12.30
2019-03-13T07:38:10.233Z,9.60
2019-03-13T07:41:09.355Z,10.40
2019-03-13T07:43:59.490Z,8.13
2019-03-13T07:46:49.709Z,13.67
2019-03-13T07:49:31.246Z,10.07
2019-03-13T07:52:20.117Z,8.77
2019-03-13T07:55:18.318Z,10.23
2019-03-13T07:58:06.866Z,9.70
2019-03-13T08:01:00.087Z,11.00
2019-03-13T08:03:48.642Z,7.97
2019-03-13T08:06:37.518Z,10.27
2019-03-13T08:09:34.059Z,10.03
2019-03-13T08:12:39.127Z,8.93
2019-03-13T08:15:23.725Z,11.70
2019-03-13T08:18:13.872Z,9.90
2019-03-13T08:21:02.757Z,8.63
2019-03-13T08:23:51.368Z,13.57
2019-03-13T08:26:31.289Z,8.00
2019-03-13T08:29:20.023Z,12.97
2019-03-13T08:32:13.320Z,8.90
2019-03-13T08:35:00.748Z,6.57
2019-03-13T08:37:51.921Z,9.20
2019-03-13T08:40:31.204Z,8.03
2019-03-13T08:43:20.548Z,6.63
2019-03-13T08:46:04.729Z,7.83
2019-03-13T08:48:48.957Z,9.13
2019-03-13T08:51:35.805Z,8.17
2019-03-13T08:54:24.503Z,8.30
2019-03-13T08:57:26.705Z,7.60
2019-03-13T09:00:16.925Z,12.10
2019-03-13T09:03:22.063Z,9.30
2019-03-13T09:06:12.231Z,4.73
2019-03-13T09:09:00.900Z,4.93
2019-03-13T09:12:00.019Z,6.50
2019-03-13T09:14:38.427Z,8.50
2019-03-13T09:17:24.766Z,7.73
2019-03-13T09:20:17.721Z,10.40
2019-03-13T09:23:13.738Z,7.97
2019-03-13T09:26:02.582Z,5.87
2019-03-13T09:28:59.287Z,5.53
2019-03-13T09:31:58.273Z,10.27
2019-03-13T09:34:43.887Z,10.40
2019-03-13T09:37:32.442Z,10.07
2019-03-13T09:40:21.549Z,7.63
2019-03-13T09:43:01.960Z,9.43
2019-03-13T09:46:04.431Z,10.90
2019-03-13T09:49:04.016Z,8.30
2019-03-13T09:52:06.376Z,8.90
2019-03-13T09:54:43.774Z,7.47
2019-03-13T09:57:45.976Z,12.37
2019-03-13T10:00:27.038Z,11.83
2019-03-13T10:03:10.054Z,8.60
2019-03-13T10:05:48.623Z,7.83
2019-03-13T10:08:30.396Z,11.17
2019-03-13T10:11:13.441Z,6.17
2019-03-13T10:14:02.347Z,9.37
2019-03-13T10:16:44.831Z,7.03
2019-03-13T10:19:38.936Z,7.03
2019-03-13T10:22:29.135Z,8.00
2019-03-13T10:25:19.306Z,6.43
2019-03-13T10:28:02.247Z,7.60
2019-03-13T10:31:07.587Z,10.77
2019-03-13T10:34:12.606Z,8.60
2019-03-13T10:37:14.786Z,7.97
2019-03-13T10:39:58.941Z,5.67
2019-03-13T10:42:53.610Z,9.00
2019-03-13T10:45:30.921Z,10.17
2019-03-13T10:48:07.042Z,7.37
2019-03-13T10:51:00.231Z,9.73
2019-03-13T10:53:48.794Z,7.83
2019-03-13T10:56:51.129Z,8.13
2019-03-13T10:59:41.352Z,6.17
2019-03-13T11:02:29.910Z,8.33
2019-03-13T11:05:18.564Z,8.60
2019-03-13T11:08:00.556Z,7.27
2019-03-13T11:10:50.706Z,11.53
2019-03-13T11:13:39.414Z,4.53
2019-03-13T11:16:27.953Z,8.20
2019-03-13T11:19:21.083Z,7.47
2019-03-13T11:22:11.237Z,5.17
2019-03-13T11:24:48.539Z,9.00
2019-03-13T11:27:29.298Z,7.17
2019-03-13T11:30:31.482Z,8.10
2019-03-13T11:33:27.460Z,8.67
2019-03-13T11:36:23.644Z,8.17
2019-03-13T11:39:10.168Z,8.13
2019-03-13T11:41:59.089Z,8.53
2019-03-13T11:45:07.447Z,6.53
2019-03-13T11:47:46.120Z,10.27
2019-03-13T11:50:45.373Z,8.73
2019-03-13T11:53:31.624Z,7.73
2019-03-13T11:56:20.219Z,6.33
2019-03-13T11:59:08.769Z,6.33
2019-03-13T12:02:00.784Z,7.03
2019-03-13T12:04:43.345Z,5.60
2019-03-13T12:07:31.720Z,6.93
2019-03-13T12:10:14.776Z,10.70
2019-03-13T12:13:03.640Z,7.13
2019-03-13T12:15:53.798Z,7.90
2019-03-13T12:18:40.311Z,7.70
2019-03-13T12:21:36.419Z,8.53
2019-03-13T12:24:22.787Z,9.43
2019-03-13T12:27:11.806Z,10.90
2019-03-13T12:30:01.828Z,8.23
2019-03-13T12:32:45.292Z,8.27
2019-03-13T12:35:22.874Z,11.43
2019-03-13T12:38:11.759Z,8.80
2019-03-13T12:41:11.772Z,9.73
2019-03-13T12:43:58.319Z,10.83
2019-03-13T12:46:38.691Z,7.33
2019-03-13T12:49:31.667Z,7.33
2019-03-13T12:52:21.831Z,7.67
2019-03-13T12:55:18.076Z,10.17
2019-03-13T12:57:57.578Z,5.87
2019-03-13T13:00:59.751Z,7.97
2019-03-13T13:03:48.580Z,6.60
2019-03-13T13:06:45.426Z,7.57
2019-03-13T13:09:34.071Z,5.97
2019-03-13T13:12:19.549Z,6.43
2019-03-13T13:15:15.797Z,4.83
2019-03-13T13:18:01.599Z,6.53
2019-03-13T13:20:32.877Z,5.67
2019-03-13T13:23:04.155Z,6.70
2019-03-13T13:25:35.357Z,9.87
2019-03-13T13:28:06.880Z,9.03
2019-03-13T13:30:38.192Z,6.63
2019-03-13T13:33:09.488Z,8.83
2019-03-13T13:35:40.796Z,7.87
2019-03-13T13:38:12.103Z,5.17
2019-03-13T13:40:43.389Z,4.83
2019-03-13T13:43:14.658Z,7.17
2019-03-13T13:46:00.001Z,9.87
2019-03-13T13:48:31.320Z,6.73
2019-03-13T13:51:02.612Z,9.93
2019-03-13T13:53:33.926Z,7.23
2019-03-13T13:56:05.238Z,7.10
2019-03-13T13:58:36.523Z,5.47
2019-03-13T14:01:07.830Z,5.10
2019-03-13T14:03:39.110Z,7.13
2019-03-13T14:06:10.415Z,5.10
2019-03-13T14:08:41.751Z,6.03
2019-03-13T14:11:13.004Z,6.37
2019-03-13T14:13:44.296Z,5.53
2019-03-13T14:16:15.579Z,6.50
2019-03-13T14:18:46.834Z,7.20
2019-03-13T14:21:18.122Z,6.00
2019-03-13T14:23:49.405Z,6.73
2019-03-13T14:26:20.722Z,5.40
2019-03-13T14:28:52.026Z,6.63
2019-03-13T14:31:23.323Z,7.67
2019-03-13T14:33:54.612Z,6.70
2019-03-13T14:36:25.875Z,6.57
2019-03-13T14:38:57.112Z,7.57
2019-03-13T14:41:28.406Z,6.03
2019-03-13T14:43:59.696Z,8.27
2019-03-13T14:46:30.997Z,9.03
2019-03-13T14:49:02.266Z,8.93
2019-03-13T14:51:33.541Z,8.33
2019-03-13T14:54:04.860Z,7.07
2019-03-13T14:56:36.168Z,6.63
2019-03-13T14:59:07.543Z,6.70
2019-03-13T15:01:38.822Z,10.97
2019-03-13T15:04:10.162Z,9.13
2019-03-13T15:06:41.486Z,7.00
2019-03-13T15:09:12.758Z,8.77
2019-03-13T15:11:44.083Z,5.00
2019-03-13T15:14:15.363Z,7.93
2019-03-13T15:16:46.624Z,5.83
2019-03-13T15:19:17.957Z,4.73
2019-03-13T15:21:49.266Z,3.37
2019-03-13T15:24:20.516Z,4.40
2019-03-13T15:26:51.815Z,4.07
2019-03-13T15:29:23.094Z,2.10
2019-03-13T15:31:54.385Z,1.93
2019-03-13T15:34:25.681Z,8.13
2019-03-13T15:36:56.976Z,4.50
2019-03-13T15:39:28.311Z,4.00
2019-03-13T15:41:59.655Z,4.07
2019-03-13T15:44:30.939Z,6.40
2019-03-13T15:47:02.270Z,3.27
2019-03-13T15:49:33.572Z,5.00
2019-03-13T15:52:04.846Z,5.20
2019-03-13T15:54:36.158Z,5.83
2019-03-13T15:57:07.479Z,3.07
2019-03-13T15:59:38.769Z,4.07
2019-03-13T16:02:10.050Z,4.47
2019-03-13T16:04:41.340Z,4.27
2019-03-13T16:07:12.648Z,3.83
2019-03-13T16:09:43.885Z,4.30
2019-03-13T16:12:15.204Z,5.03
2019-03-13T16:14:46.516Z,3.40
2019-03-13T16:17:17.853Z,3.47
2019-03-13T16:19:49.167Z,3.23
2019-03-13T16:22:22.261Z,6.37
2019-03-13T16:24:53.582Z,4.57
2019-03-13T16:27:25.959Z,4.93
2019-03-13T16:29:57.251Z,5.97
2019-03-13T16:32:28.514Z,4.17
2019-03-13T16:34:59.795Z,3.53
2019-03-13T16:37:31.135Z,7.17
2019-03-13T16:40:02.443Z,7.00
2019-03-13T16:42:33.899Z,5.83
2019-03-13T16:45:05.830Z,4.87
2019-03-13T16:47:37.181Z,8.00
2019-03-13T16:50:11.121Z,4.83
2019-03-13T16:52:42.431Z,5.47
2019-03-13T16:55:16.413Z,4.73
2019-03-13T16:57:47.748Z,4.40
2019-03-13T17:00:22.035Z,6.27
2019-03-13T17:02:53.321Z,5.93
2019-03-13T17:05:24.585Z,3.17
2019-03-13T17:07:56.081Z,5.97
2019-03-13T17:10:27.432Z,3.63
2019-03-13T17:12:58.891Z,6.63
2019-03-13T17:15:30.263Z,7.57
2019-03-13T17:18:01.521Z,7.37
2019-03-13T17:20:32.958Z,4.40
2019-03-13T17:23:04.305Z,6.70
2019-03-13T17:25:35.608Z,5.83
2019-03-13T17:28:06.889Z,5.07
2019-03-13T17:30:38.210Z,6.23
2019-03-13T17:33:09.525Z,4.67
2019-03-13T17:35:40.821Z,7.73
2019-03-13T17:38:12.133Z,6.30
2019-03-13T17:40:43.413Z,5.57
2019-03-13T17:43:14.683Z,6.00
2019-03-13T17:45:45.986Z,7.10
2019-03-13T17:48:17.283Z,6.27
2019-03-13T17:50:48.539Z,6.20
2019-03-13T17:53:19.846Z,6.27
2019-03-13T17:55:51.171Z,6.07
2019-03-13T17:58:22.855Z,4.93
2019-03-13T18:00:54.457Z,6.60
2019-03-13T18:03:25.856Z,4.37
2019-03-13T18:05:57.170Z,7.27
2019-03-13T18:08:28.476Z,8.80
2019-03-13T18:11:00.040Z,7.13
2019-03-13T18:13:33.576Z,7.53
2019-03-13T18:16:05.146Z,8.37
2019-03-13T18:18:37.520Z,9.00
2019-03-13T18:21:08.884Z,11.30
2019-03-13T18:23:40.327Z,8.67
2019-03-13T18:26:15.051Z,9.10
2019-03-13T18:28:46.295Z,11.03
2019-03-13T18:31:22.789Z,12.97
2019-03-13T18:33:55.196Z,16.03
2019-03-13T18:36:26.636Z,10.10
2019-03-13T18:38:58.626Z,9.00
2019-03-13T18:41:31.461Z,9.17
2019-03-13T18:44:02.780Z,10.03
2019-03-13T18:46:34.136Z,9.53
2019-03-13T18:49:05.477Z,10.73
2019-03-13T18:51:36.802Z,11.27
2019-03-13T18:54:08.078Z,9.80
2019-03-13T18:56:39.343Z,13.30
2019-03-13T18:59:10.669Z,12.63
2019-03-13T19:01:41.957Z,15.80
2019-03-13T19:04:13.234Z,15.33
2019-03-13T19:06:44.539Z,10.87
2019-03-13T19:09:15.830Z,17.30
2019-03-13T19:11:47.180Z,14.50
2019-03-13T19:14:18.477Z,11.77
2019-03-13T19:16:49.772Z,14.67
2019-03-13T19:19:21.102Z,8.97
2019-03-13T19:21:52.425Z,15.00
2019-03-13T19:24:23.730Z,10.60
2019-03-13T19:26:55.081Z,13.13
2019-03-13T19:29:26.407Z,7.00
2019-03-13T19:31:57.655Z,15.33
2019-03-13T19:34:28.989Z,12.00
2019-03-13T19:37:00.332Z,7.60
2019-03-13T19:39:32.263Z,12.77
2019-03-13T19:42:03.566Z,12.30
2019-03-13T19:44:34.874Z,13.47
2019-03-13T19:47:06.121Z,13.13
2019-03-13T19:49:37.466Z,10.77
2019-03-13T19:52:08.893Z,14.20
2019-03-13T19:54:40.178Z,9.07
2019-03-13T19:57:11.500Z,13.87
2019-03-13T19:59:42.980Z,12.67
2019-03-13T20:02:14.328Z,11.73
2019-03-13T20:04:47.582Z,13.27
2019-03-13T20:07:18.707Z,10.67
2019-03-13T20:09:50.075Z,20.23
2019-03-13T20:12:21.410Z,14.70
2019-03-13T20:14:52.760Z,10.23
2019-03-13T20:17:24.177Z,12.50
2019-03-13T20:19:55.562Z,10.77
2019-03-13T20:22:26.956Z,15.83
2019-03-13T20:24:58.311Z,13.40
2019-03-13T20:27:29.661Z,12.47
2019-03-13T20:30:01.034Z,11.50
2019-03-13T20:32:32.384Z,15.03
2019-03-13T20:35:03.731Z,10.77
2019-03-13T20:37:35.111Z,10.80
2019-03-13T20:40:07.765Z,10.97
2019-03-13T20:42:39.162Z,9.70
2019-03-13T20:45:12.775Z,7.70
2019-03-13T20:47:44.082Z,13.33
2019-03-13T20:50:16.063Z,9.07
2019-03-13T20:52:47.407Z,7.50
2019-03-13T20:55:18.983Z,9.07
2019-03-13T20:57:50.540Z,9.67
2019-03-13T21:00:24.082Z,8.70
2019-03-13T21:02:56.080Z,9.50
2019-03-13T21:05:27.428Z,6.77
2019-03-13T21:07:58.695Z,10.93
2019-03-13T21:10:30.111Z,15.17
2019-03-13T21:13:01.421Z,9.97
2019-03-13T21:15:32.747Z,11.53
2019-03-13T21:18:04.149Z,9.97
2019-03-13T21:20:35.475Z,11.77
2019-03-13T21:23:06.842Z,9.10
2019-03-13T21:25:38.161Z,13.13
2019-03-13T21:28:09.491Z,10.40
2019-03-13T21:30:41.200Z,10.13
2019-03-13T21:33:12.531Z,10.43
2019-03-13T21:35:43.979Z,9.57
2019-03-13T21:38:15.336Z,15.20
2019-03-13T21:40:46.751Z,14.47
2019-03-13T21:43:18.944Z,11.33
2019-03-13T21:45:50.351Z,12.83
2019-03-13T21:48:21.701Z,12.87
2019-03-13T21:50:53.043Z,12.40
2019-03-13T21:53:27.439Z,14.60
2019-03-13T21:55:58.781Z,13.00
2019-03-13T21:58:30.101Z,12.70
2019-03-13T22:01:01.465Z,13.00
2019-03-13T22:03:32.786Z,15.10
2019-03-13T22:06:04.102Z,12.27
2019-03-13T22:08:35.417Z,11.63
2019-03-13T22:11:06.839Z,13.27
2019-03-13T22:13:38.182Z,15.37
2019-03-13T22:16:09.489Z,12.17
2019-03-13T22:18:40.791Z,14.23
2019-03-13T22:21:12.082Z,12.33
2019-03-13T22:23:43.357Z,11.83
2019-03-13T22:26:15.015Z,10.93
2019-03-13T22:28:46.323Z,9.67
2019-03-13T22:31:17.649Z,11.23
2019-03-13T22:33:49.005Z,10.17
2019-03-13T22:36:20.285Z,9.73
2019-03-13T22:38:51.994Z,11.17
2019-03-13T22:41:23.302Z,9.07
2019-03-13T22:43:54.627Z,13.40
2019-03-13T22:46:25.969Z,9.13
2019-03-13T22:48:58.575Z,6.83
2019-03-13T22:51:30.090Z,9.03
2019-03-13T22:54:01.431Z,10.90
2019-03-13T22:56:32.734Z,7.90
2019-03-13T22:59:04.037Z,5.07
2019-03-13T23:01:35.666Z,9.07
2019-03-13T23:04:07.162Z,6.83
2019-03-13T23:06:38.436Z,5.57
2019-03-13T23:09:13.720Z,9.07
2019-03-13T23:11:45.037Z,8.63
2019-03-13T23:14:16.341Z,7.67
2019-03-13T23:16:47.619Z,8.13
2019-03-13T23:19:18.892Z,7.83
2019-03-13T23:21:50.130Z,8.93
2019-03-13T23:24:21.365Z,8.33
2019-03-13T23:26:52.662Z,5.10
2019-03-13T23:29:23.936Z,9.93
2019-03-13T23:31:55.208Z,8.37
2019-03-13T23:34:26.510Z,6.37
2019-03-13T23:36:57.799Z,7.17
2019-03-13T23:39:29.184Z,8.77
2019-03-13T23:42:00.476Z,9.20
2019-03-13T23:44:31.828Z,7.27
2019-03-13T23:47:03.190Z,5.60
2019-03-13T23:49:34.510Z,7.43
2019-03-13T23:52:05.848Z,9.40
2019-03-13T23:54:37.194Z,9.00
2019-03-13T23:57:08.467Z,4.83
2019-03-13T23:59:39.775Z,7.07
